Back to Top

Language: 

My Weather Underground Personal Weather Station Historical Data with Graphs...

Delerius Weather Station Historical Data
Daily Summary for July 12, 2017 Units:  English    Metric   Both
« Previous Day
Next Day »
Daily Weekly Monthly Yearly Custom
  High: Low: Average:
Temperature: 69.3 °F 52.2 °F 60.3 °F
Dew Point: 52.8 °F 46.8 °F 50.5 °F
Humidity: 96 % 48 % 72 %
Wind Speed: 9.0 mph 0.0 mph 4.1 mph
Wind Gust: 18.0 mph - -
Wind:- - SE
Pressure: 30.18 in 29.81 in -
Precipitation: 0.00 in    
Historical Graphs
 
 
Tabular Data for July 12, 2017
Time Temperature Dew Point Pressure Wind Wind Speed Wind Gust Humidity Rainfall Rate (Hourly) solar Conditions
00:04 53.4 °F 52.3 °F 29.81 in Calm   4.0 mph 96 % 0.00 in 0 W/m2
00:09 53.4 °F 52.3 °F 29.81 in North 1.0 mph 7.0 mph 96 % 0.00 in 0 W/m2
00:14 53.4 °F 52.3 °F 29.81 in North 2.0 mph 7.0 mph 96 % 0.00 in 0 W/m2
00:19 53.4 °F 52.3 °F 29.81 in North 3.0 mph 7.0 mph 96 % 0.00 in 0 W/m2
00:24 53.2 °F 52.1 °F 29.81 in NNW 4.0 mph 8.0 mph 96 % 0.00 in 0 W/m2
00:29 53.2 °F 52.1 °F 29.81 in North 4.0 mph 8.0 mph 96 % 0.00 in 0 W/m2
00:34 53.2 °F 52.1 °F 29.81 in North 4.0 mph 8.0 mph 96 % 0.00 in 0 W/m2
00:39 53.2 °F 52.1 °F 29.81 in North 3.0 mph 7.0 mph 96 % 0.00 in 0 W/m2
00:44 53.2 °F 52.1 °F 29.81 in NNW 2.0 mph 5.0 mph 96 % 0.00 in 0 W/m2
00:49 53.2 °F 52.1 °F 29.81 in NNW 2.0 mph 5.0 mph 96 % 0.00 in 0 W/m2
00:54 53.1 °F 52.0 °F 29.81 in NNW 3.0 mph 7.0 mph 96 % 0.00 in 0 W/m2
00:59 53.1 °F 52.0 °F 29.81 in NNW 3.0 mph 8.0 mph 96 % 0.00 in 0 W/m2
01:04 53.2 °F 52.1 °F 29.81 in NNW 3.0 mph 8.0 mph 96 % 0.00 in 0 W/m2
01:09 53.2 °F 52.1 °F 29.81 in North 4.0 mph 8.0 mph 96 % 0.00 in 0 W/m2
01:14 53.2 °F 52.1 °F 29.81 in North 3.0 mph 8.0 mph 96 % 0.00 in 0 W/m2
01:20 53.4 °F 52.3 °F 29.81 in North 4.0 mph 8.0 mph 96 % 0.00 in 0 W/m2
01:25 53.4 °F 52.3 °F 29.81 in North 4.0 mph 8.0 mph 96 % 0.00 in 0 W/m2
01:30 53.4 °F 52.3 °F 29.81 in North 3.0 mph 8.0 mph 96 % 0.00 in 0 W/m2
01:35 53.4 °F 52.3 °F 29.81 in NNE 2.0 mph 8.0 mph 96 % 0.00 in 0 W/m2
01:40 53.4 °F 52.3 °F 29.81 in NNE 2.0 mph 8.0 mph 96 % 0.00 in 0 W/m2
01:45 53.6 °F 52.5 °F 29.81 in NNE 2.0 mph 8.0 mph 96 % 0.00 in 0 W/m2
01:50 53.6 °F 52.5 °F 29.81 in NNE 3.0 mph 9.0 mph 96 % 0.00 in 0 W/m2
01:55 53.6 °F 52.5 °F 29.81 in NE 2.0 mph 9.0 mph 96 % 0.00 in 0 W/m2
02:00 53.6 °F 52.5 °F 29.81 in NNE 3.0 mph 9.0 mph 96 % 0.00 in 0 W/m2
02:05 53.8 °F 52.7 °F 29.81 in NNE 4.0 mph 9.0 mph 96 % 0.00 in 0 W/m2
02:10 53.8 °F 52.7 °F 29.82 in NNE 3.0 mph 8.0 mph 96 % 0.00 in 0 W/m2
02:15 53.8 °F 52.7 °F 29.82 in NNE 3.0 mph 8.0 mph 96 % 0.00 in 0 W/m2
02:20 53.8 °F 52.7 °F 29.82 in NNE 4.0 mph 12.0 mph 96 % 0.00 in 0 W/m2
02:25 53.8 °F 52.7 °F 29.82 in NNE 5.0 mph 13.0 mph 96 % 0.00 in 0 W/m2
02:30 53.8 °F 52.7 °F 29.82 in NNE 5.0 mph 13.0 mph 96 % 0.00 in 0 W/m2
02:35 54.0 °F 52.8 °F 29.82 in NNE 5.0 mph 12.0 mph 96 % 0.00 in 0 W/m2
02:40 54.0 °F 52.8 °F 29.82 in NNE 4.0 mph 8.0 mph 96 % 0.00 in 0 W/m2
02:45 54.0 °F 52.8 °F 29.82 in NNE 4.0 mph 8.0 mph 96 % 0.00 in 0 W/m2
02:50 53.8 °F 52.7 °F 29.82 in NNE 4.0 mph 10.0 mph 96 % 0.00 in 0 W/m2
02:55 53.8 °F 52.7 °F 29.83 in NNE 4.0 mph 11.0 mph 96 % 0.00 in 0 W/m2
03:00 53.8 °F 52.7 °F 29.82 in NNE 4.0 mph 11.0 mph 96 % 0.00 in 0 W/m2
03:05 53.8 °F 52.7 °F 29.83 in North 4.0 mph 9.0 mph 96 % 0.00 in 0 W/m2
03:10 53.8 °F 52.7 °F 29.83 in North 4.0 mph 9.0 mph 96 % 0.00 in 0 W/m2
03:15 53.8 °F 52.7 °F 29.83 in North 5.0 mph 11.0 mph 96 % 0.00 in 0 W/m2
03:20 53.8 °F 52.7 °F 29.83 in North 4.0 mph 11.0 mph 96 % 0.00 in 0 W/m2
03:25 53.6 °F 52.5 °F 29.83 in North 4.0 mph 9.0 mph 96 % 0.00 in 0 W/m2
03:30 53.4 °F 52.3 °F 29.83 in North 4.0 mph 9.0 mph 96 % 0.00 in 0 W/m2
03:35 53.4 °F 52.3 °F 29.83 in North 4.0 mph 8.0 mph 96 % 0.00 in 0 W/m2
03:40 53.4 °F 52.3 °F 29.84 in NNW 3.0 mph 8.0 mph 96 % 0.00 in 0 W/m2
03:45 53.2 °F 52.1 °F 29.84 in NNW 4.0 mph 8.0 mph 96 % 0.00 in 0 W/m2
03:50 53.1 °F 52.0 °F 29.84 in North 5.0 mph 10.0 mph 96 % 0.00 in 0 W/m2
03:55 53.1 °F 52.0 °F 29.84 in North 6.0 mph 10.0 mph 96 % 0.00 in 0 W/m2
04:00 52.9 °F 51.8 °F 29.84 in North 5.0 mph 11.0 mph 96 % 0.00 in 0 W/m2
04:05 52.7 °F 51.6 °F 29.85 in NNW 5.0 mph 11.0 mph 96 % 0.00 in 0 W/m2
04:10 52.5 °F 51.4 °F 29.85 in North 5.0 mph 8.0 mph 96 % 0.00 in 0 W/m2
04:15 52.5 °F 51.4 °F 29.85 in North 5.0 mph 11.0 mph 96 % 0.00 in 0 W/m2
04:20 52.3 °F 51.2 °F 29.86 in North 5.0 mph 11.0 mph 96 % 0.00 in 0 W/m2
04:25 52.3 °F 51.2 °F 29.86 in North 5.0 mph 10.0 mph 96 % 0.00 in 0 W/m2
04:30 52.2 °F 51.1 °F 29.86 in North 4.0 mph 9.0 mph 96 % 0.00 in 0 W/m2
04:35 52.2 °F 51.1 °F 29.86 in NNW 3.0 mph 9.0 mph 96 % 0.00 in 0 W/m2
04:40 52.2 °F 51.1 °F 29.87 in North 4.0 mph 9.0 mph 96 % 0.00 in 0 W/m2
04:45 52.2 °F 50.8 °F 29.87 in North 5.0 mph 10.0 mph 95 % 0.00 in 0 W/m2
04:50 52.2 °F 50.8 °F 29.87 in North 4.0 mph 10.0 mph 95 % 0.00 in 0 W/m2
04:55 52.2 °F 50.8 °F 29.87 in North 3.0 mph 8.0 mph 95 % 0.00 in 5 W/m2
05:00 52.2 °F 50.8 °F 29.87 in North 2.0 mph 8.0 mph 95 % 0.00 in 9 W/m2
05:05 52.2 °F 50.8 °F 29.88 in North 2.0 mph 8.0 mph 95 % 0.00 in 9 W/m2
05:10 52.2 °F 50.8 °F 29.88 in North 3.0 mph 9.0 mph 95 % 0.00 in 11 W/m2
05:15 52.2 °F 50.8 °F 29.88 in North 3.0 mph 9.0 mph 95 % 0.00 in 12 W/m2
05:17 52.2 °F 50.8 °F 29.88 in North 4.0 mph 9.0 mph 95 % 0.00 in 12 W/m2
05:22 52.2 °F 50.8 °F 29.88 in North 4.0 mph 9.0 mph 95 % 0.00 in 14 W/m2
05:27 52.2 °F 50.8 °F 29.88 in North 5.0 mph 9.0 mph 95 % 0.00 in 19 W/m2
05:32 52.3 °F 51.0 °F 29.89 in NNW 4.0 mph 9.0 mph 95 % 0.00 in 25 W/m2
05:37 52.3 °F 51.0 °F 29.89 in NNW 5.0 mph 9.0 mph 95 % 0.00 in 30 W/m2
05:42 52.3 °F 51.0 °F 29.89 in North 5.0 mph 9.0 mph 95 % 0.00 in 37 W/m2
05:47 52.3 °F 51.0 °F 29.89 in North 5.0 mph 10.0 mph 95 % 0.00 in 39 W/m2
05:52 52.3 °F 51.0 °F 29.90 in NNW 5.0 mph 10.0 mph 95 % 0.00 in 42 W/m2
05:57 52.3 °F 50.7 °F 29.90 in NNW 5.0 mph 11.0 mph 94 % 0.00 in 62 W/m2
05:59 52.3 °F 50.7 °F 29.90 in NNW 6.0 mph 11.0 mph 94 % 0.00 in 77 W/m2
06:04 52.5 °F 51.1 °F 29.90 in NNW 6.0 mph 11.0 mph 95 % 0.00 in 65 W/m2
06:09 52.5 °F 50.8 °F 29.90 in NNW 5.0 mph 11.0 mph 94 % 0.00 in 114 W/m2
06:14 52.7 °F 51.0 °F 29.91 in NNW 6.0 mph 11.0 mph 94 % 0.00 in 77 W/m2
06:19 52.9 °F 51.2 °F 29.91 in NNW 6.0 mph 12.0 mph 94 % 0.00 in 35 W/m2
06:24 53.1 °F 51.1 °F 29.91 in NNW 5.0 mph 12.0 mph 93 % 0.00 in 49 W/m2
06:29 53.2 °F 51.3 °F 29.92 in North 4.0 mph 11.0 mph 93 % 0.00 in 42 W/m2
06:34 53.2 °F 51.0 °F 29.92 in NNW 4.0 mph 9.0 mph 92 % 0.00 in 39 W/m2
06:39 53.2 °F 51.0 °F 29.92 in North 4.0 mph 9.0 mph 92 % 0.00 in 37 W/m2
06:44 53.2 °F 50.7 °F 29.92 in North 5.0 mph 11.0 mph 91 % 0.00 in 40 W/m2
06:49 53.2 °F 50.7 °F 29.93 in North 6.0 mph 12.0 mph 91 % 0.00 in 63 W/m2
06:54 53.2 °F 50.7 °F 29.93 in North 6.0 mph 12.0 mph 91 % 0.00 in 33 W/m2
06:59 53.4 °F 50.9 °F 29.93 in NNW 7.0 mph 12.0 mph 91 % 0.00 in 37 W/m2
07:04 53.4 °F 50.9 °F 29.93 in NNW 6.0 mph 11.0 mph 91 % 0.00 in 39 W/m2
07:09 53.4 °F 50.9 °F 29.94 in North 6.0 mph 15.0 mph 91 % 0.00 in 49 W/m2
07:14 53.6 °F 50.7 °F 29.94 in North 7.0 mph 15.0 mph 90 % 0.00 in 56 W/m2
07:19 53.8 °F 50.9 °F 29.94 in North 6.0 mph 12.0 mph 90 % 0.00 in 56 W/m2
07:24 54.1 °F 51.3 °F 29.95 in North 6.0 mph 12.0 mph 90 % 0.00 in 287 W/m2
07:29 54.7 °F 51.8 °F 29.95 in North 5.0 mph 11.0 mph 90 % 0.00 in 306 W/m2
07:34 55.0 °F 51.9 °F 29.95 in North 5.0 mph 11.0 mph 89 % 0.00 in 318 W/m2
07:39 55.8 °F 52.3 °F 29.95 in North 5.0 mph 11.0 mph 88 % 0.00 in 327 W/m2
07:44 55.9 °F 51.8 °F 29.95 in North 6.0 mph 15.0 mph 86 % 0.00 in 350 W/m2
07:49 55.9 °F 51.5 °F 29.96 in North 7.0 mph 15.0 mph 85 % 0.00 in 360 W/m2
07:54 56.5 °F 52.0 °F 29.96 in North 7.0 mph 13.0 mph 85 % 0.00 in 385 W/m2
07:59 56.8 °F 52.1 °F 29.96 in North 7.0 mph 13.0 mph 84 % 0.00 in 388 W/m2
08:04 56.8 °F 51.7 °F 29.96 in North 8.0 mph 16.0 mph 83 % 0.00 in 410 W/m2
08:09 57.0 °F 51.9 °F 29.96 in North 8.0 mph 16.0 mph 83 % 0.00 in 469 W/m2
08:14 57.2 °F 51.8 °F 29.97 in North 8.0 mph 15.0 mph 82 % 0.00 in 443 W/m2
08:19 57.4 °F 51.9 °F 29.97 in North 8.0 mph 15.0 mph 82 % 0.00 in 455 W/m2
08:24 57.6 °F 51.8 °F 29.97 in NNE 8.0 mph 15.0 mph 81 % 0.00 in 462 W/m2
08:29 57.4 °F 51.6 °F 29.97 in NNE 8.0 mph 15.0 mph 81 % 0.00 in 120 W/m2
08:34 57.4 °F 51.6 °F 29.97 in NNE 7.0 mph 13.0 mph 81 % 0.00 in 489 W/m2
08:39 57.9 °F 52.1 °F 29.97 in NNE 5.0 mph 10.0 mph 81 % 0.00 in 548 W/m2
08:44 58.3 °F 51.8 °F 29.98 in NNE 6.0 mph 15.0 mph 79 % 0.00 in 149 W/m2
08:49 58.1 °F 51.3 °F 29.98 in North 7.0 mph 15.0 mph 78 % 0.00 in 197 W/m2
08:55 57.9 °F 51.1 °F 29.99 in North 6.0 mph 12.0 mph 78 % 0.00 in 213 W/m2
09:00 57.7 °F 50.6 °F 29.99 in NNE 7.0 mph 15.0 mph 77 % 0.00 in 102 W/m2
09:05 57.6 °F 51.1 °F 29.99 in NNE 7.0 mph 15.0 mph 79 % 0.00 in 638 W/m2
09:10 57.9 °F 51.1 °F 29.99 in NNE 6.0 mph 13.0 mph 78 % 0.00 in 185 W/m2
09:15 58.3 °F 51.1 °F 30.00 in NNE 6.0 mph 14.0 mph 77 % 0.00 in 585 W/m2
09:20 58.6 °F 50.7 °F 29.99 in NNE 7.0 mph 15.0 mph 75 % 0.00 in 687 W/m2
09:25 59.4 °F 51.1 °F 29.99 in North 8.0 mph 15.0 mph 74 % 0.00 in 705 W/m2
09:30 59.7 °F 51.4 °F 30.00 in North 8.0 mph 15.0 mph 74 % 0.00 in 791 W/m2
09:35 60.3 °F 51.2 °F 30.00 in North 8.0 mph 16.0 mph 72 % 0.00 in 751 W/m2
09:40 60.6 °F 51.9 °F 30.00 in North 6.0 mph 16.0 mph 73 % 0.00 in 708 W/m2
09:45 61.2 °F 50.9 °F 30.00 in NE 5.0 mph 14.0 mph 69 % 0.00 in 860 W/m2
09:50 61.2 °F 51.3 °F 30.01 in NNE 7.0 mph 14.0 mph 70 % 0.00 in 183 W/m2
09:55 60.6 °F 50.8 °F 30.01 in North 8.0 mph 14.0 mph 70 % 0.00 in 195 W/m2
10:00 60.3 °F 51.2 °F 30.01 in North 7.0 mph 14.0 mph 72 % 0.00 in 283 W/m2
10:05 59.9 °F 51.2 °F 30.01 in NNE 6.0 mph 12.0 mph 73 % 0.00 in 780 W/m2
10:10 60.6 °F 51.9 °F 30.01 in NNE 6.0 mph 11.0 mph 73 % 0.00 in 889 W/m2
10:15 61.2 °F 51.7 °F 30.01 in NNE 7.0 mph 13.0 mph 71 % 0.00 in 846 W/m2
10:20 61.5 °F 51.3 °F 30.01 in NNE 8.0 mph 16.0 mph 69 % 0.00 in 868 W/m2
10:25 61.2 °F 50.5 °F 30.01 in NNE 9.0 mph 16.0 mph 68 % 0.00 in 185 W/m2
10:30 61.0 °F 51.5 °F 30.02 in North 8.0 mph 14.0 mph 71 % 0.00 in 791 W/m2
10:35 61.2 °F 50.9 °F 30.02 in NNE 8.0 mph 14.0 mph 69 % 0.00 in 779 W/m2
10:40 61.9 °F 50.4 °F 30.02 in NNE 6.0 mph 14.0 mph 66 % 0.00 in 172 W/m2
10:45 61.7 °F 49.8 °F 30.02 in NNE 6.0 mph 11.0 mph 65 % 0.00 in 156 W/m2
10:50 61.3 °F 50.7 °F 30.02 in NNE 7.0 mph 18.0 mph 68 % 0.00 in 886 W/m2
10:55 61.2 °F 50.5 °F 30.02 in NNE 7.0 mph 18.0 mph 68 % 0.00 in 287 W/m2
11:00 61.2 °F 50.5 °F 30.03 in North 6.0 mph 12.0 mph 68 % 0.00 in 214 W/m2
11:01 61.2 °F 50.5 °F 30.03 in North 6.0 mph 12.0 mph 68 % 0.00 in 155 W/m2
11:06 61.2 °F 50.9 °F 30.03 in North 4.0 mph 12.0 mph 69 % 0.00 in 926 W/m2
11:11 61.9 °F 50.4 °F 30.03 in NE 2.0 mph 8.0 mph 66 % 0.00 in 250 W/m2
11:16 62.1 °F 50.2 °F 30.03 in NE 2.0 mph 8.0 mph 65 % 0.00 in 229 W/m2
11:21 62.4 °F 50.5 °F 30.03 in NNE 3.0 mph 9.0 mph 65 % 0.00 in 916 W/m2
11:26 63.1 °F 51.6 °F 30.03 in NE 3.0 mph 9.0 mph 66 % 0.00 in 1088 W/m2
11:31 63.7 °F 50.4 °F 30.03 in NE 4.0 mph 11.0 mph 62 % 0.00 in 432 W/m2
11:36 63.9 °F 50.6 °F 30.03 in NE 4.0 mph 11.0 mph 62 % 0.00 in 311 W/m2
11:41 63.9 °F 50.6 °F 30.03 in NNE 6.0 mph 11.0 mph 62 % 0.00 in 951 W/m2
11:46 63.3 °F 50.1 °F 30.03 in North 7.0 mph 12.0 mph 62 % 0.00 in 956 W/m2
11:51 63.7 °F 50.8 °F 30.03 in NNE 7.0 mph 12.0 mph 63 % 0.00 in 1011 W/m2
11:56 64.0 °F 49.9 °F 30.04 in North 6.0 mph 12.0 mph 60 % 0.00 in 1102 W/m2
12:01 64.6 °F 50.4 °F 30.04 in NNE 4.0 mph 13.0 mph 60 % 0.00 in 236 W/m2
12:06 64.4 °F 50.2 °F 30.04 in NNE 4.0 mph 13.0 mph 60 % 0.00 in 308 W/m2
12:11 64.6 °F 50.8 °F 30.04 in NNE 4.0 mph 9.0 mph 61 % 0.00 in 863 W/m2
12:16 64.4 °F 50.2 °F 30.05 in NNE 5.0 mph 9.0 mph 60 % 0.00 in 986 W/m2
12:21 64.8 °F 50.5 °F 30.04 in NE 4.0 mph 9.0 mph 60 % 0.00 in 1106 W/m2
12:26 65.3 °F 50.1 °F 30.04 in ENE 4.0 mph 11.0 mph 58 % 0.00 in 220 W/m2
12:32 65.7 °F 50.5 °F 30.04 in NE 4.0 mph 11.0 mph 58 % 0.00 in 290 W/m2
12:36 65.7 °F 49.5 °F 30.04 in NNE 4.0 mph 9.0 mph 56 % 0.00 in 292 W/m2
12:42 65.1 °F 50.0 °F 30.05 in NE 4.0 mph 9.0 mph 58 % 0.00 in 1129 W/m2
12:47 65.7 °F 50.0 °F 30.05 in NNE 4.0 mph 9.0 mph 57 % 0.00 in 279 W/m2
12:52 65.5 °F 49.4 °F 30.05 in NNE 6.0 mph 13.0 mph 56 % 0.00 in 262 W/m2
12:57 65.3 °F 50.1 °F 30.06 in NNE 5.0 mph 13.0 mph 58 % 0.00 in 1018 W/m2
13:02 65.8 °F 49.7 °F 30.06 in NNE 3.0 mph 8.0 mph 56 % 0.00 in 1079 W/m2
13:07 66.6 °F 50.8 °F 30.06 in North 4.0 mph 9.0 mph 57 % 0.00 in 371 W/m2
13:12 66.4 °F 49.7 °F 30.06 in North 4.0 mph 9.0 mph 55 % 0.00 in 304 W/m2
13:17 66.0 °F 50.3 °F 30.07 in NNE 5.0 mph 14.0 mph 57 % 0.00 in 269 W/m2
13:22 65.7 °F 49.5 °F 30.07 in NE 4.0 mph 14.0 mph 56 % 0.00 in 227 W/m2
13:27 65.7 °F 50.5 °F 30.07 in North 5.0 mph 12.0 mph 58 % 0.00 in 1048 W/m2
13:32 66.0 °F 50.3 °F 30.07 in NNE 6.0 mph 12.0 mph 57 % 0.00 in 1092 W/m2
13:37 66.6 °F 49.4 °F 30.07 in ENE 4.0 mph 9.0 mph 54 % 0.00 in 343 W/m2
13:42 66.6 °F 49.9 °F 30.07 in NE 4.0 mph 12.0 mph 55 % 0.00 in 315 W/m2
13:47 66.4 °F 49.2 °F 30.07 in NNE 6.0 mph 13.0 mph 54 % 0.00 in 388 W/m2
13:52 66.9 °F 50.7 °F 30.08 in NNE 5.0 mph 13.0 mph 56 % 0.00 in 1058 W/m2
13:57 67.3 °F 51.0 °F 30.08 in NE 5.0 mph 12.0 mph 56 % 0.00 in 1111 W/m2
14:02 67.3 °F 49.0 °F 30.08 in ENE 5.0 mph 12.0 mph 52 % 0.00 in 417 W/m2
14:07 67.1 °F 49.9 °F 30.08 in ENE 5.0 mph 10.0 mph 54 % 0.00 in 394 W/m2
14:12 66.7 °F 48.5 °F 30.09 in NE 7.0 mph 15.0 mph 52 % 0.00 in 345 W/m2
14:17 66.6 °F 48.4 °F 30.09 in NNE 7.0 mph 15.0 mph 52 % 0.00 in 330 W/m2
14:22 66.6 °F 49.4 °F 30.09 in North 6.0 mph 11.0 mph 54 % 0.00 in 413 W/m2
14:27 66.6 °F 49.4 °F 30.09 in North 5.0 mph 10.0 mph 54 % 0.00 in 506 W/m2
14:32 66.6 °F 48.9 °F 30.10 in NNE 6.0 mph 13.0 mph 53 % 0.00 in 403 W/m2
14:37 66.4 °F 48.2 °F 30.10 in North 6.0 mph 13.0 mph 52 % 0.00 in 417 W/m2
14:42 66.6 °F 49.4 °F 30.10 in North 5.0 mph 13.0 mph 54 % 0.00 in 417 W/m2
14:47 66.9 °F 49.7 °F 30.10 in NNW 5.0 mph 13.0 mph 54 % 0.00 in 448 W/m2
14:52 67.5 °F 50.7 °F 30.10 in North 4.0 mph 9.0 mph 55 % 0.00 in 422 W/m2
14:57 67.8 °F 51.1 °F 30.10 in North 5.0 mph 13.0 mph 55 % 0.00 in 629 W/m2
15:02 68.0 °F 49.7 °F 30.10 in NNE 5.0 mph 13.0 mph 52 % 0.00 in 367 W/m2
15:08 67.5 °F 49.2 °F 30.11 in NE 5.0 mph 11.0 mph 52 % 0.00 in 306 W/m2
15:13 66.9 °F 48.2 °F 30.11 in NNE 5.0 mph 9.0 mph 51 % 0.00 in 348 W/m2
15:18 66.6 °F 48.4 °F 30.11 in NNE 5.0 mph 9.0 mph 52 % 0.00 in 329 W/m2
15:23 66.6 °F 49.9 °F 30.11 in ESE 3.0 mph 9.0 mph 55 % 0.00 in 478 W/m2
15:28 66.7 °F 49.1 °F 30.11 in East 3.0 mph 10.0 mph 53 % 0.00 in 362 W/m2
15:33 66.6 °F 48.4 °F 30.11 in ENE 4.0 mph 10.0 mph 52 % 0.00 in 295 W/m2
15:38 66.6 °F 46.8 °F 30.11 in NE 5.0 mph 10.0 mph 49 % 0.00 in 288 W/m2
15:43 66.4 °F 48.2 °F 30.11 in NNE 4.0 mph 9.0 mph 52 % 0.00 in 327 W/m2
15:48 66.9 °F 48.7 °F 30.11 in NNE 4.0 mph 11.0 mph 52 % 0.00 in 327 W/m2
15:53 67.6 °F 48.3 °F 30.11 in North 4.0 mph 11.0 mph 50 % 0.00 in 469 W/m2
15:58 68.2 °F 48.3 °F 30.12 in North 3.0 mph 9.0 mph 49 % 0.00 in 958 W/m2
16:03 68.5 °F 48.1 °F 30.12 in NNE 4.0 mph 10.0 mph 48 % 0.00 in 891 W/m2
16:08 68.9 °F 48.9 °F 30.12 in NNE 4.0 mph 10.0 mph 49 % 0.00 in 895 W/m2
16:13 69.3 °F 49.8 °F 30.12 in NE 2.0 mph 8.0 mph 50 % 0.00 in 299 W/m2
16:18 69.3 °F 48.7 °F 30.12 in NNE 2.0 mph 7.0 mph 48 % 0.00 in 274 W/m2
16:23 68.7 °F 49.3 °F 30.12 in NE 2.0 mph 8.0 mph 50 % 0.00 in 304 W/m2
16:28 68.4 °F 49.0 °F 30.12 in ENE 3.0 mph 8.0 mph 50 % 0.00 in 279 W/m2
16:33 67.8 °F 48.5 °F 30.12 in ENE 4.0 mph 10.0 mph 50 % 0.00 in 236 W/m2
16:38 67.6 °F 48.3 °F 30.12 in East 4.0 mph 10.0 mph 50 % 0.00 in 221 W/m2
16:43 67.5 °F 49.2 °F 30.12 in ENE 3.0 mph 6.0 mph 52 % 0.00 in 297 W/m2
16:48 67.6 °F 48.9 °F 30.12 in ENE 2.0 mph 6.0 mph 51 % 0.00 in 285 W/m2
16:53 67.8 °F 48.5 °F 30.12 in East 2.0 mph 6.0 mph 50 % 0.00 in 482 W/m2
16:54 67.8 °F 48.5 °F 30.12 in East 2.0 mph 6.0 mph 50 % 0.00 in 341 W/m2
16:59 67.6 °F 48.3 °F 30.12 in East 2.0 mph 6.0 mph 50 % 0.00 in 213 W/m2
17:04 67.8 °F 48.5 °F 30.12 in East 1.0 mph 5.0 mph 50 % 0.00 in 306 W/m2
17:09 67.8 °F 49.0 °F 30.12 in SE 2.0 mph 6.0 mph 51 % 0.00 in 744 W/m2
17:14 67.8 °F 48.5 °F 30.12 in SE 2.0 mph 6.0 mph 50 % 0.00 in 276 W/m2
17:19 67.8 °F 48.5 °F 30.12 in ESE 1.0 mph 4.0 mph 50 % 0.00 in 285 W/m2
17:24 68.2 °F 48.8 °F 30.12 in SSE 1.0 mph 5.0 mph 50 % 0.00 in 288 W/m2
17:29 68.2 °F 48.8 °F 30.12 in South 2.0 mph 5.0 mph 50 % 0.00 in 299 W/m2
17:34 68.4 °F 49.0 °F 30.12 in South 2.0 mph 5.0 mph 50 % 0.00 in 279 W/m2
17:39 68.4 °F 48.5 °F 30.12 in SSE 2.0 mph 7.0 mph 49 % 0.00 in 218 W/m2
17:44 68.2 °F 48.3 °F 30.12 in East 2.0 mph 7.0 mph 49 % 0.00 in 225 W/m2
17:50 68.0 °F 48.1 °F 30.12 in East 2.0 mph 5.0 mph 49 % 0.00 in 185 W/m2
17:54 67.8 °F 47.4 °F 30.12 in East 1.0 mph 5.0 mph 48 % 0.00 in 176 W/m2
18:00 67.6 °F 48.3 °F 30.13 in Calm   2.0 mph 50 % 0.00 in 192 W/m2
18:05 67.5 °F 47.1 °F 30.13 in Calm   2.0 mph 48 % 0.00 in 216 W/m2
18:10 67.5 °F 48.2 °F 30.13 in South 1.0 mph 4.0 mph 50 % 0.00 in 229 W/m2
18:15 67.5 °F 48.2 °F 30.13 in SW 2.0 mph 5.0 mph 50 % 0.00 in 251 W/m2
18:20 67.6 °F 48.3 °F 30.13 in SW 2.0 mph 5.0 mph 50 % 0.00 in 441 W/m2
18:25 68.0 °F 47.6 °F 30.13 in SW 1.0 mph 4.0 mph 48 % 0.00 in 503 W/m2
18:30 68.4 °F 47.9 °F 30.13 in SW 1.0 mph 5.0 mph 48 % 0.00 in 434 W/m2
18:35 68.7 °F 48.8 °F 30.13 in SW 1.0 mph 5.0 mph 49 % 0.00 in 381 W/m2
18:40 69.3 °F 48.7 °F 30.13 in ESE 3.0 mph 11.0 mph 48 % 0.00 in 334 W/m2
18:41 69.3 °F 48.7 °F 30.13 in ESE 3.0 mph 11.0 mph 48 % 0.00 in 229 W/m2
18:46 69.1 °F 49.1 °F 30.13 in ESE 4.0 mph 11.0 mph 49 % 0.00 in 151 W/m2
18:51 68.5 °F 48.6 °F 30.14 in East 5.0 mph 8.0 mph 49 % 0.00 in 83 W/m2
18:56 68.2 °F 49.4 °F 30.14 in East 3.0 mph 7.0 mph 51 % 0.00 in 116 W/m2
19:01 67.6 °F 48.9 °F 30.14 in East 4.0 mph 9.0 mph 51 % 0.00 in 74 W/m2
19:06 66.9 °F 48.7 °F 30.14 in East 4.0 mph 9.0 mph 52 % 0.00 in 69 W/m2
19:11 66.7 °F 48.5 °F 30.14 in East 4.0 mph 7.0 mph 52 % 0.00 in 244 W/m2
19:16 66.6 °F 48.4 °F 30.13 in East 3.0 mph 7.0 mph 52 % 0.00 in 225 W/m2
19:21 66.7 °F 49.1 °F 30.14 in ESE 3.0 mph 7.0 mph 53 % 0.00 in 209 W/m2
19:22 66.7 °F 49.1 °F 30.14 in ESE 3.0 mph 7.0 mph 53 % 0.00 in 207 W/m2
19:27 66.7 °F 48.5 °F 30.14 in SE 4.0 mph 9.0 mph 52 % 0.00 in 153 W/m2
19:32 66.7 °F 48.5 °F 30.14 in SE 4.0 mph 9.0 mph 52 % 0.00 in 181 W/m2
19:37 66.7 °F 48.5 °F 30.14 in SE 3.0 mph 6.0 mph 52 % 0.00 in 81 W/m2
19:42 66.7 °F 49.6 °F 30.14 in SE 3.0 mph 6.0 mph 54 % 0.00 in 53 W/m2
19:47 66.6 °F 48.9 °F 30.14 in SE 2.0 mph 5.0 mph 53 % 0.00 in 49 W/m2
19:52 66.4 °F 49.7 °F 30.14 in SE 2.0 mph 6.0 mph 55 % 0.00 in 49 W/m2
19:57 65.8 °F 49.7 °F 30.14 in SE 2.0 mph 6.0 mph 56 % 0.00 in 40 W/m2
20:02 65.7 °F 49.5 °F 30.14 in ESE 2.0 mph 6.0 mph 56 % 0.00 in 40 W/m2
20:07 65.3 °F 49.2 °F 30.15 in SE 3.0 mph 7.0 mph 56 % 0.00 in 42 W/m2
20:13 65.1 °F 50.0 °F 30.14 in SSE 3.0 mph 7.0 mph 58 % 0.00 in 37 W/m2
20:18 64.9 °F 49.8 °F 30.15 in SSE 2.0 mph 7.0 mph 58 % 0.00 in 35 W/m2
20:23 64.6 °F 49.9 °F 30.15 in SSE 3.0 mph 7.0 mph 59 % 0.00 in 37 W/m2
20:28 64.4 °F 49.8 °F 30.15 in SSE 4.0 mph 8.0 mph 59 % 0.00 in 33 W/m2
20:33 64.2 °F 50.0 °F 30.15 in SSE 2.0 mph 8.0 mph 60 % 0.00 in 28 W/m2
20:38 64.0 °F 50.3 °F 30.15 in SSE 1.0 mph 4.0 mph 61 % 0.00 in 26 W/m2
20:43 63.7 °F 50.0 °F 30.15 in SSE 1.0 mph 5.0 mph 61 % 0.00 in 21 W/m2
20:48 63.5 °F 50.7 °F 30.15 in SSE 1.0 mph 5.0 mph 63 % 0.00 in 21 W/m2
20:53 63.1 °F 50.8 °F 30.15 in SSE 1.0 mph 6.0 mph 64 % 0.00 in 18 W/m2
20:58 63.0 °F 50.6 °F 30.15 in SSE 2.0 mph 6.0 mph 64 % 0.00 in 16 W/m2
21:03 62.8 °F 50.8 °F 30.15 in South 2.0 mph 5.0 mph 65 % 0.00 in 14 W/m2
21:08 62.4 °F 50.5 °F 30.15 in South 2.0 mph 5.0 mph 65 % 0.00 in 12 W/m2
21:13 62.1 °F 50.2 °F 30.15 in South 2.0 mph 5.0 mph 65 % 0.00 in 12 W/m2
21:18 61.9 °F 50.4 °F 30.15 in South 1.0 mph 5.0 mph 66 % 0.00 in 11 W/m2
21:23 61.5 °F 50.5 °F 30.15 in South 1.0 mph 4.0 mph 67 % 0.00 in 7 W/m2
21:28 61.2 °F 50.1 °F 30.16 in South 2.0 mph 5.0 mph 67 % 0.00 in 5 W/m2
21:33 61.0 °F 50.3 °F 30.16 in South 1.0 mph 5.0 mph 68 % 0.00 in 5 W/m2
21:38 60.6 °F 50.4 °F 30.16 in South 1.0 mph 4.0 mph 69 % 0.00 in 0 W/m2
21:43 60.3 °F 50.0 °F 30.16 in South 1.0 mph 4.0 mph 69 % 0.00 in 0 W/m2
21:48 60.1 °F 50.3 °F 30.16 in South 1.0 mph 4.0 mph 70 % 0.00 in 0 W/m2
21:53 59.7 °F 49.9 °F 30.16 in South 1.0 mph 4.0 mph 70 % 0.00 in 0 W/m2
21:58 59.7 °F 49.9 °F 30.16 in SSE 1.0 mph 5.0 mph 70 % 0.00 in 0 W/m2
22:03 59.7 °F 49.9 °F 30.16 in SSE 3.0 mph 6.0 mph 70 % 0.00 in 0 W/m2
22:08 59.7 °F 49.9 °F 30.16 in SSE 4.0 mph 7.0 mph 70 % 0.00 in 0 W/m2
22:13 59.7 °F 49.9 °F 30.16 in SE 4.0 mph 7.0 mph 70 % 0.00 in 0 W/m2
22:18 59.7 °F 49.9 °F 30.16 in SE 4.0 mph 7.0 mph 70 % 0.00 in 0 W/m2
22:23 59.7 °F 49.9 °F 30.17 in SE 4.0 mph 7.0 mph 70 % 0.00 in 0 W/m2
22:28 59.7 °F 49.9 °F 30.17 in SE 3.0 mph 7.0 mph 70 % 0.00 in 0 W/m2
22:33 59.5 °F 50.1 °F 30.17 in ESE 3.0 mph 7.0 mph 71 % 0.00 in 0 W/m2
22:38 59.2 °F 50.2 °F 30.17 in ESE 4.0 mph 7.0 mph 72 % 0.00 in 0 W/m2
22:43 59.2 °F 50.2 °F 30.17 in ESE 3.0 mph 7.0 mph 72 % 0.00 in 0 W/m2
22:48 58.8 °F 50.2 °F 30.17 in ESE 3.0 mph 8.0 mph 73 % 0.00 in 0 W/m2
22:53 58.8 °F 50.2 °F 30.17 in ESE 3.0 mph 8.0 mph 73 % 0.00 in 0 W/m2
22:58 58.6 °F 50.0 °F 30.17 in SE 3.0 mph 8.0 mph 73 % 0.00 in 0 W/m2
23:03 58.6 °F 50.0 °F 30.17 in SE 4.0 mph 10.0 mph 73 % 0.00 in 0 W/m2
23:08 58.5 °F 50.2 °F 30.18 in SE 5.0 mph 10.0 mph 74 % 0.00 in 0 W/m2
23:13 58.3 °F 50.4 °F 30.18 in SE 5.0 mph 10.0 mph 75 % 0.00 in 0 W/m2
23:18 58.1 °F 50.2 °F 30.18 in SE 6.0 mph 10.0 mph 75 % 0.00 in 0 W/m2
23:23 57.9 °F 50.4 °F 30.18 in SE 6.0 mph 10.0 mph 76 % 0.00 in 0 W/m2
23:28 57.7 °F 50.2 °F 30.18 in SE 5.0 mph 10.0 mph 76 % 0.00 in 0 W/m2
23:33 57.6 °F 50.4 °F 30.18 in SE 4.0 mph 9.0 mph 77 % 0.00 in 0 W/m2
23:38 57.4 °F 50.2 °F 30.18 in SSE 4.0 mph 9.0 mph 77 % 0.00 in 0 W/m2
23:44 57.4 °F 50.2 °F 30.18 in SSE 3.0 mph 9.0 mph 77 % 0.00 in 0 W/m2
23:49 57.2 °F 50.1 °F 30.18 in SSE 3.0 mph 6.0 mph 77 % 0.00 in 0 W/m2
23:53 57.2 °F 50.4 °F 30.18 in South 3.0 mph 8.0 mph 78 % 0.00 in 0 W/m2
23:59 57.2 °F 50.4 °F 30.18 in SSW 2.0 mph 8.0 mph 78 % 0.00 in 0 W/m2
Delerius-Weather
Compliments of Weather Underground - 2.25 mb

Data updates at regular intervals.